CYHE

Hope Airport

Hope, British Columbia, Canada
METAR CYHE 210400Z AUTO 12008KT 9SM OVC085 03/03 A2993 RMK SLP140
Observed Flight Rules
Jan-21 @ 04:00 UTC (52 minutes ago) Visual Flight Rules
Wind Visibility Clouds
120° at 8 knots 9 miles
  • Overcast at 8,500' AGL
Temperatures Readings
Current 3°C / 37°F
Dewpoint 3°C / 37°F
Humidity 100%
Altimeter 29.93" Hg
Pressure 1014 hPa
Elevation 39
METAR CYHE 210400Z AUTO 12008KT 9SM OVC085 03/03 A2993 RMK SLP140
Observed Flight Rules
Jan-21 @ 04:00 UTC
(52 minutes ago)
VFR
Wind Visibility
120° at 8 knots 9 miles
Clouds
  • Overcast at 8,500' AGL
Temperature Dewpoint
3°C / 37°F 3°C / 37°F
Humidity Altimeter Pressure
100% 29.93" Hg 1014 hPa